Time;durP1;ratioP1;P1;durP2;ratioP2;P2;SDS_P1;SDS_P2;PMS_P1;PMS_P2;Temp;Humidity;BMP_temperature;BMP_pressure;BME280_temperature;BME280_humidity;BME280_pressure;Samples;Min_cycle;Max_cycle;Signal;HPM_P1;HPM_P2
2021/11/18 00:00:58;;;;;;;23.90;10.82;;;;;;;-144.57;100.00;62443.72;5051170;28;20159;-66
2021/11/18 00:03:24;;;;;;;26.83;11.38;;;;;;;-144.57;100.00;62443.72;5052953;28;20047;-66
2021/11/18 00:05:50;;;;;;;27.20;11.93;;;;;;;-144.57;100.00;62443.72;5051478;28;20044;-66
2021/11/18 00:08:16;;;;;;;21.08;10.20;;;;;;;-144.57;100.00;62443.72;5050176;28;20041;-66
2021/11/18 00:10:48;;;;;;;25.20;11.68;;;;;;;-144.57;100.00;62443.72;5051908;28;20115;-65
2021/11/18 00:13:16;;;;;;;22.35;11.40;;;;;;;-144.57;100.00;62443.72;5051063;28;20128;-66
2021/11/18 00:15:43;;;;;;;25.48;12.13;;;;;;;-144.57;100.00;62443.72;5034645;28;20072;-66
2021/11/18 00:18:11;;;;;;;25.35;11.98;;;;;;;-144.57;100.00;62443.72;5052323;28;20049;-66
2021/11/18 00:20:41;;;;;;;24.60;12.23;;;;;;;-144.57;100.00;62443.72;5052494;28;20099;-65
2021/11/18 00:23:07;;;;;;;22.88;12.18;;;;;;;-144.57;100.00;62443.72;5052308;28;20051;-65
2021/11/18 00:25:33;;;;;;;22.15;11.35;;;;;;;-144.57;100.00;62443.72;5051973;28;20071;-66
2021/11/18 00:27:59;;;;;;;25.63;11.68;;;;;;;-144.57;100.00;62443.72;5034119;28;20063;-66
2021/11/18 00:30:26;;;;;;;19.13;9.82;;;;;;;-144.57;100.00;62443.72;5052305;28;20147;-66
2021/11/18 00:32:52;;;;;;;23.38;11.63;;;;;;;-144.57;100.00;62443.72;5052082;28;20087;-65
2021/11/18 00:35:22;;;;;;;23.75;11.80;;;;;;;-144.57;100.00;62443.72;5050788;28;20458;-64
2021/11/18 00:37:50;;;;;;;21.02;10.80;;;;;;;-144.57;100.00;62443.72;5034247;28;20041;-64
2021/11/18 00:40:20;;;;;;;21.48;10.00;;;;;;;-144.57;100.00;62443.72;5050660;28;20502;-64
2021/11/18 00:42:49;;;;;;;18.10;9.60;;;;;;;-144.57;100.00;62443.72;5030693;28;20140;-65
2021/11/18 00:45:16;;;;;;;21.08;10.32;;;;;;;-144.57;100.00;62443.72;5032083;28;20048;-64
2021/11/18 00:47:42;;;;;;;20.83;10.02;;;;;;;-144.57;100.00;62443.72;5034277;28;20048;-65
2021/11/18 00:50:10;;;;;;;19.42;9.25;;;;;;;-144.57;100.00;62443.72;5001142;28;20417;-64
2021/11/18 00:52:36;;;;;;;15.18;7.97;;;;;;;-144.57;100.00;62443.72;5001164;28;20037;-64
2021/11/18 00:55:05;;;;;;;18.83;8.80;;;;;;;-144.57;100.00;62443.72;5050307;28;20124;-64
2021/11/18 00:57:31;;;;;;;18.30;8.05;;;;;;;-144.57;100.00;62443.72;5050586;28;20131;-65
2021/11/18 00:59:57;;;;;;;16.80;8.52;;;;;;;-144.57;100.00;62443.72;5050261;28;20044;-65
2021/11/18 01:02:23;;;;;;;20.70;10.30;;;;;;;-144.57;100.00;62443.72;5052020;28;20064;-64
2021/11/18 01:04:49;;;;;;;14.45;7.80;;;;;;;-144.57;100.00;62443.72;5051547;28;20049;-65
2021/11/18 01:07:15;;;;;;;17.83;8.45;;;;;;;-144.57;100.00;62443.72;5051897;28;20051;-64
2021/11/18 01:09:41;;;;;;;15.40;8.13;;;;;;;-144.57;100.00;62443.72;5051501;28;20128;-64
2021/11/18 01:12:09;;;;;;;17.23;8.32;;;;;;;-144.57;100.00;62443.72;5051884;28;20535;-65
2021/11/18 01:14:37;;;;;;;18.42;8.52;;;;;;;-144.57;100.00;62443.72;5049892;28;20044;-66
2021/11/18 01:17:04;;;;;;;15.30;8.00;;;;;;;-144.57;100.00;62443.72;5049556;28;20186;-65
2021/11/18 01:19:31;;;;;;;14.82;8.35;;;;;;;-144.57;100.00;62443.72;5050058;28;20162;-66
2021/11/18 01:22:00;;;;;;;28.13;10.02;;;;;;;-144.57;100.00;62443.72;5033057;28;20525;-65
2021/11/18 01:24:30;;;;;;;15.90;7.82;;;;;;;-144.57;100.00;62443.72;5049737;28;20053;-65
2021/11/18 01:27:19;;;;;;;17.00;7.93;;;;;;;-144.57;100.00;62443.72;5045493;28;20053;-65
2021/11/18 01:29:45;;;;;;;14.82;7.20;;;;;;;-144.57;100.00;62443.72;5049996;28;20120;-65
2021/11/18 01:32:13;;;;;;;13.70;7.43;;;;;;;-144.57;100.00;62443.72;5050179;28;20407;-64
2021/11/18 01:34:42;;;;;;;19.42;8.32;;;;;;;-144.57;100.00;62443.72;5050095;28;20047;-65
2021/11/18 01:37:09;;;;;;;13.60;6.57;;;;;;;-144.57;100.00;62443.72;5050058;28;20044;-66
2021/11/18 01:39:34;;;;;;;18.80;7.68;;;;;;;-144.57;100.00;62443.72;5033251;28;20043;-65
2021/11/18 01:42:01;;;;;;;17.80;8.63;;;;;;;-144.57;100.00;62443.72;5050128;28;20106;-66
2021/11/18 01:44:37;;;;;;;17.13;7.47;;;;;;;-144.57;100.00;62443.72;5049680;28;20040;-65
2021/11/18 01:47:05;;;;;;;19.17;8.88;;;;;;;-144.57;100.00;62443.72;5033417;28;20052;-64
2021/11/18 01:49:32;;;;;;;18.70;8.10;;;;;;;-144.57;100.00;62443.72;5050984;28;20044;-64
2021/11/18 01:52:00;;;;;;;19.98;8.30;;;;;;;-144.57;100.00;62443.72;5017006;28;20103;-65
2021/11/18 01:54:29;;;;;;;20.48;8.38;;;;;;;-144.57;100.00;62443.72;5033031;28;20583;-65
2021/11/18 01:56:56;;;;;;;17.33;8.15;;;;;;;-144.57;100.00;62443.72;5049819;28;20053;-65
2021/11/18 01:59:28;;;;;;;15.82;7.80;;;;;;;-144.57;100.00;62443.72;5050844;28;20096;-66
2021/11/18 02:02:17;;;;;;;18.30;8.20;;;;;;;-144.57;100.00;62443.72;5030937;28;20060;-64
2021/11/18 02:05:08;;;;;;;18.02;8.25;;;;;;;-144.57;100.00;62443.72;5035189;28;20129;-65
2021/11/18 02:07:37;;;;;;;16.95;7.57;;;;;;;-144.57;100.00;62443.72;5051025;28;20143;-65
2021/11/18 02:10:04;;;;;;;17.90;8.32;;;;;;;-144.57;100.00;62443.72;5050705;28;20120;-65
2021/11/18 02:12:32;;;;;;;20.73;8.68;;;;;;;-144.57;100.00;62443.72;5049771;28;20052;-64
2021/11/18 02:14:58;;;;;;;18.60;8.40;;;;;;;-144.57;100.00;62443.72;5032978;28;20040;-64
2021/11/18 02:17:26;;;;;;;19.05;8.63;;;;;;;-144.57;100.00;62443.72;5032878;28;20044;-65
2021/11/18 02:19:57;;;;;;;20.90;8.82;;;;;;;-144.57;100.00;62443.72;5032718;28;20045;-64
2021/11/18 02:22:24;;;;;;;17.13;8.32;;;;;;;-144.57;100.00;62443.72;5049442;28;20367;-64
2021/11/18 02:25:00;;;;;;;18.40;8.30;;;;;;;-144.57;100.00;62443.72;5049663;28;20041;-64
2021/11/18 02:27:29;;;;;;;19.67;9.30;;;;;;;-144.57;100.00;62443.72;5049261;28;20534;-65
2021/11/18 02:29:56;;;;;;;17.65;8.35;;;;;;;-144.57;100.00;62443.72;5050937;28;20064;-65
2021/11/18 02:32:27;;;;;;;19.40;9.00;;;;;;;-144.57;100.00;62443.72;5049026;28;20497;-65
2021/11/18 02:35:07;;;;;;;19.10;8.35;;;;;;;-144.57;100.00;62443.72;5052597;28;20463;-66
2021/11/18 02:37:33;;;;;;;20.73;9.48;;;;;;;-144.57;100.00;62443.72;5054222;28;20049;-66
2021/11/18 02:39:59;;;;;;;18.40;8.13;;;;;;;-144.57;100.00;62443.72;5052914;28;20581;-64
2021/11/18 02:42:26;;;;;;;18.42;8.57;;;;;;;-144.57;100.00;62443.72;5036224;28;20047;-65
2021/11/18 02:44:52;;;;;;;19.83;8.55;;;;;;;-144.57;100.00;62443.72;5036620;28;20037;-65
2021/11/18 02:47:18;;;;;;;20.73;9.63;;;;;;;-144.57;100.00;62443.72;5035781;28;20033;-64
2021/11/18 02:49:48;;;;;;;17.58;8.13;;;;;;;-144.57;100.00;62443.72;5052647;28;20116;-64
2021/11/18 02:52:28;;;;;;;18.02;8.63;;;;;;;-144.57;100.00;62443.72;5052318;28;20033;-66
2021/11/18 02:54:59;;;;;;;17.65;8.70;;;;;;;-144.57;100.00;62443.72;5052991;28;20143;-65
2021/11/18 02:57:29;;;;;;;19.02;8.30;;;;;;;-144.57;100.00;62443.72;5052349;28;20044;-65
2021/11/18 02:59:55;;;;;;;17.67;7.65;;;;;;;-144.57;100.00;62443.72;5052872;28;20045;-66
2021/11/18 03:02:21;;;;;;;20.30;8.40;;;;;;;-144.57;100.00;62443.72;5035665;28;20099;-66
2021/11/18 03:04:47;;;;;;;21.38;8.65;;;;;;;-144.57;100.00;62443.72;5053725;28;20124;-65
2021/11/18 03:07:13;;;;;;;18.13;8.35;;;;;;;-144.57;100.00;62443.72;5052453;28;20128;-65
2021/11/18 03:09:39;;;;;;;19.42;9.18;;;;;;;-144.57;100.00;62443.72;5052703;28;20040;-65
2021/11/18 03:12:05;;;;;;;17.17;8.45;;;;;;;-144.57;100.00;62443.72;5035736;28;20473;-65
2021/11/18 03:14:32;;;;;;;16.08;8.30;;;;;;;-144.57;100.00;62443.72;5052625;28;20041;-64
2021/11/18 03:16:58;;;;;;;18.30;9.68;;;;;;;-144.57;100.00;62443.72;5053736;28;20498;-65
2021/11/18 03:19:33;;;;;;;16.40;8.63;;;;;;;-144.57;100.00;62443.72;5048935;28;20072;-65
2021/11/18 03:21:59;;;;;;;17.40;9.00;;;;;;;-144.57;100.00;62443.72;5049038;28;20120;-65
2021/11/18 03:24:24;;;;;;;18.27;9.07;;;;;;;-144.57;100.00;62443.72;5051893;28;20094;-66
2021/11/18 03:26:52;;;;;;;20.80;10.13;;;;;;;-144.57;100.00;62443.72;5051974;28;20510;-65
2021/11/18 03:29:23;;;;;;;18.67;9.40;;;;;;;-144.57;100.00;62443.72;5035353;28;20045;-65
2021/11/18 03:31:49;;;;;;;19.13;8.95;;;;;;;-144.57;100.00;62443.72;5052147;28;20094;-66
2021/11/18 03:34:26;;;;;;;22.08;10.27;;;;;;;-144.57;100.00;62443.72;5052088;28;20048;-65
2021/11/18 03:36:52;;;;;;;14.50;8.02;;;;;;;-144.57;100.00;62443.72;5035550;28;20049;-65
2021/11/18 03:39:20;;;;;;;16.38;8.82;;;;;;;-144.57;100.00;62443.72;5051993;28;20469;-66
2021/11/18 03:41:49;;;;;;;18.02;8.73;;;;;;;-144.57;100.00;62443.72;5051961;28;20066;-65
2021/11/18 03:44:16;;;;;;;15.90;8.95;;;;;;;-144.57;100.00;62443.72;5052571;28;20063;-65
2021/11/18 03:46:48;;;;;;;20.45;8.75;;;;;;;-144.57;100.00;62443.72;5052821;28;20056;-66
2021/11/18 03:49:14;;;;;;;18.13;9.30;;;;;;;-144.57;100.00;62443.72;5051848;28;20090;-65
2021/11/18 03:51:46;;;;;;;18.40;9.73;;;;;;;-144.57;100.00;62443.72;5035321;28;20498;-65
2021/11/18 03:54:14;;;;;;;19.08;9.23;;;;;;;-144.57;100.00;62443.72;5051584;28;20055;-65
2021/11/18 03:56:41;;;;;;;18.05;9.40;;;;;;;-144.57;100.00;62443.72;5051563;28;20045;-65
2021/11/18 03:59:13;;;;;;;19.42;10.10;;;;;;;-144.57;100.00;62443.72;5051647;28;20029;-65
2021/11/18 04:01:40;;;;;;;20.05;10.00;;;;;;;-144.57;100.00;62443.72;5051483;28;20106;-66
2021/11/18 04:04:09;;;;;;;16.27;8.75;;;;;;;-144.57;100.00;62443.72;5052582;28;20044;-65
2021/11/18 04:06:39;;;;;;;18.90;8.70;;;;;;;-144.57;100.00;62443.72;5051257;28;20075;-65
2021/11/18 04:09:05;;;;;;;22.15;9.15;;;;;;;-144.57;100.00;62443.72;5051392;28;20502;-65
2021/11/18 04:11:32;;;;;;;22.80;10.00;;;;;;;-144.57;100.00;62443.72;5051344;28;20049;-66
2021/11/18 04:14:03;;;;;;;21.42;9.63;;;;;;;-144.57;100.00;62443.72;5051270;28;20064;-65
2021/11/18 04:16:29;;;;;;;18.70;9.73;;;;;;;-144.57;100.00;62443.72;5052389;28;20506;-65
2021/11/18 04:18:55;;;;;;;21.83;9.77;;;;;;;-144.57;100.00;62443.72;5051391;28;20077;-65
2021/11/18 04:21:26;;;;;;;21.30;9.57;;;;;;;-144.57;100.00;62443.72;5034119;28;20041;-66
2021/11/18 04:23:52;;;;;;;19.10;9.45;;;;;;;-144.57;100.00;62443.72;5018103;28;20128;-65
2021/11/18 04:26:18;;;;;;;19.95;9.68;;;;;;;-144.57;100.00;62443.72;5033904;28;20210;-65
2021/11/18 04:28:46;;;;;;;21.98;9.48;;;;;;;-144.57;100.00;62443.72;5051224;28;20045;-67
2021/11/18 04:31:18;;;;;;;19.95;9.82;;;;;;;-144.57;100.00;62443.72;5050766;28;20118;-65
2021/11/18 04:33:45;;;;;;;20.63;9.73;;;;;;;-144.57;100.00;62443.72;5051822;28;20562;-65
2021/11/18 04:36:13;;;;;;;21.15;9.70;;;;;;;-144.57;100.00;62443.72;5050522;28;20083;-65
2021/11/18 04:38:43;;;;;;;22.67;11.15;;;;;;;-144.57;100.00;62443.72;5050404;28;20103;-66
2021/11/18 04:41:12;;;;;;;19.48;9.90;;;;;;;-144.57;100.00;62443.72;5030350;28;20139;-65
2021/11/18 04:43:41;;;;;;;19.55;9.82;;;;;;;-144.57;100.00;62443.72;5030622;28;20574;-67
2021/11/18 04:46:09;;;;;;;23.67;10.43;;;;;;;-144.57;100.00;62443.72;5040385;28;20139;-66
2021/11/18 04:48:38;;;;;;;24.33;10.85;;;;;;;-144.57;100.00;62443.72;5033679;28;20044;-65
2021/11/18 04:51:08;;;;;;;21.48;10.77;;;;;;;-144.57;100.00;62443.72;5050273;28;20157;-66
2021/11/18 04:53:34;;;;;;;22.50;10.68;;;;;;;-144.57;100.00;62443.72;5034166;28;20072;-66
2021/11/18 04:56:01;;;;;;;24.10;10.52;;;;;;;-144.57;100.00;62443.72;5049569;28;20055;-67
2021/11/18 04:58:36;;;;;;;20.77;10.07;;;;;;;-144.57;100.00;62443.72;5050717;28;20040;-68
2021/11/18 05:01:03;;;;;;;24.50;11.70;;;;;;;-144.57;100.00;62443.72;5016972;28;20091;-66
2021/11/18 05:03:29;;;;;;;25.67;10.95;;;;;;;-144.57;100.00;62443.72;5049928;28;20029;-67
2021/11/18 05:05:57;;;;;;;21.20;10.10;;;;;;;-144.57;100.00;62443.72;5016757;28;20474;-66
2021/11/18 05:08:23;;;;;;;23.85;10.52;;;;;;;-144.57;100.00;62443.72;5051291;28;20490;-68
2021/11/18 05:10:51;;;;;;;24.38;11.77;;;;;;;-144.57;100.00;62443.72;5032966;28;20486;-66
2021/11/18 05:13:23;;;;;;;24.67;12.25;;;;;;;-144.57;100.00;62443.72;5017060;28;20036;-65
2021/11/18 05:15:56;;;;;;;29.15;10.68;;;;;;;-144.57;100.00;62443.72;5017553;28;20049;-65
2021/11/18 05:18:26;;;;;;;26.13;11.10;;;;;;;-144.57;100.00;62443.72;5050341;28;20064;-65
2021/11/18 05:20:52;;;;;;;28.02;12.55;;;;;;;-144.57;100.00;62443.72;5033659;28;20103;-67
2021/11/18 05:23:18;;;;;;;26.15;12.30;;;;;;;-144.57;100.00;62443.72;5051350;28;20072;-68
2021/11/18 05:25:55;;;;;;;27.00;12.75;;;;;;;-144.57;100.00;62443.72;5049928;28;20044;-67
2021/11/18 05:28:22;;;;;;;28.35;13.07;;;;;;;-144.57;100.00;62443.72;5050098;28;20340;-69
2021/11/18 05:30:48;;;;;;;32.15;13.13;;;;;;;-144.57;100.00;62443.72;5050965;28;20053;-69
2021/11/18 05:33:27;;;;;;;30.35;13.60;;;;;;;-144.57;100.00;62443.72;5049511;28;20131;-65
2021/11/18 05:36:03;;;;;;;28.55;13.20;;;;;;;-144.57;100.00;62443.72;5018020;28;20460;-65
2021/11/18 05:38:30;;;;;;;29.50;13.25;;;;;;;-144.57;100.00;62443.72;5049786;28;20067;-65
2021/11/18 05:40:56;;;;;;;32.85;15.10;;;;;;;-144.57;100.00;62443.72;5050928;28;20100;-65
2021/11/18 05:43:26;;;;;;;32.42;14.90;;;;;;;-144.57;100.00;62443.72;5033113;28;20037;-65
2021/11/18 05:45:53;;;;;;;31.13;14.80;;;;;;;-144.57;100.00;62443.72;5049811;28;20045;-66
2021/11/18 05:48:20;;;;;;;30.60;15.10;;;;;;;-144.57;100.00;62443.72;5049545;28;20084;-66
2021/11/18 05:50:57;;;;;;;33.97;16.08;;;;;;;-144.57;100.00;62443.72;5033142;28;20044;-65
2021/11/18 05:53:31;;;;;;;37.78;16.25;;;;;;;-144.57;100.00;62443.72;5032493;28;20056;-66
2021/11/18 05:55:59;;;;;;;35.10;15.25;;;;;;;-144.57;100.00;62443.72;5049597;28;20079;-66
2021/11/18 05:58:25;;;;;;;35.70;14.93;;;;;;;-144.57;100.00;62443.72;5000268;28;20517;-67
2021/11/18 06:00:51;;;;;;;36.67;16.33;;;;;;;-144.57;100.00;62443.72;5016568;28;20053;-66
2021/11/18 06:03:20;;;;;;;37.20;15.38;;;;;;;-144.57;100.00;62443.72;5049254;28;20041;-66
2021/11/18 06:05:47;;;;;;;35.97;15.60;;;;;;;-144.57;100.00;62443.72;5049471;28;20045;-66
2021/11/18 06:08:13;;;;;;;37.28;16.38;;;;;;;-144.57;100.00;62443.72;5052785;28;20034;-66
2021/11/18 06:10:39;;;;;;;35.03;16.52;;;;;;;-144.57;100.00;62443.72;5053250;28;20522;-65
2021/11/18 06:13:06;;;;;;;34.65;16.10;;;;;;;-144.57;100.00;62443.72;5036842;28;20048;-67
2021/11/18 06:15:37;;;;;;;34.50;16.17;;;;;;;-144.57;100.00;62443.72;5037492;28;20131;-65
2021/11/18 06:18:05;;;;;;;37.78;15.45;;;;;;;-144.57;100.00;62443.72;5054449;28;20049;-67
2021/11/18 06:20:32;;;;;;;39.95;17.27;;;;;;;-144.57;100.00;62443.72;5053076;28;20111;-65
2021/11/18 06:22:57;;;;;;;37.08;16.77;;;;;;;-144.57;100.00;62443.72;5053217;28;20701;-64
2021/11/18 06:25:27;;;;;;;35.70;16.90;;;;;;;-144.57;100.00;62443.72;5052691;28;20127;-65
2021/11/18 06:27:53;;;;;;;40.42;17.40;;;;;;;-144.57;100.00;62443.72;5052589;28;20056;-64
2021/11/18 06:30:26;;;;;;;37.97;16.67;;;;;;;-144.57;100.00;62443.72;5035784;28;20032;-64
2021/11/18 06:32:54;;;;;;;35.40;16.38;;;;;;;-144.57;100.00;62443.72;5053079;28;20048;-64
2021/11/18 06:35:20;;;;;;;30.98;15.38;;;;;;;-144.57;100.00;62443.72;5052790;28;20076;-66
2021/11/18 06:37:46;;;;;;;36.00;15.77;;;;;;;-144.57;100.00;62443.72;5036461;28;20051;-66
2021/11/18 06:40:14;;;;;;;38.53;15.25;;;;;;;-144.57;100.00;62443.72;5052444;28;20098;-70
2021/11/18 06:42:44;;;;;;;38.20;14.98;;;;;;;-144.57;100.00;62443.72;5047929;28;20049;-65
2021/11/18 06:45:25;;;;;;;;;;;;;;;-144.57;100.00;62443.72;5053118;28;20182;-64
2021/11/18 06:47:59;;;;;;;32.65;14.90;;;;;;;-144.57;100.00;62443.72;5018506;28;19991;-66
2021/11/18 06:50:25;;;;;;;35.03;14.43;;;;;;;-144.57;100.00;62443.72;5052075;28;20497;-66
2021/11/18 06:52:59;;;;;;;30.05;13.55;;;;;;;-144.57;100.00;62443.72;5032492;28;20490;-67
2021/11/18 06:55:25;;;;;;;35.30;14.77;;;;;;;-144.57;100.00;62443.72;5044663;28;20048;-65
2021/11/18 06:57:51;;;;;;;34.33;14.27;;;;;;;-144.57;100.00;62443.72;5043295;28;20066;-64
2021/11/18 07:00:18;;;;;;;30.05;13.32;;;;;;;-144.57;100.00;62443.72;5049194;28;20044;-64
2021/11/18 07:02:44;;;;;;;37.97;14.13;;;;;;;-144.57;100.00;62443.72;5049867;28;20103;-63
2021/11/18 07:05:12;;;;;;;26.50;12.65;;;;;;;-144.57;100.00;62443.72;5049154;28;20139;-65
2021/11/18 07:07:38;;;;;;;35.13;13.40;;;;;;;-144.57;100.00;62443.72;5032239;28;20674;-62
2021/11/18 07:10:07;;;;;;;29.25;12.75;;;;;;;-144.57;100.00;62443.72;5014919;28;20405;-63
2021/11/18 07:12:44;;;;;;;29.23;13.60;;;;;;;-144.57;100.00;62443.72;5046525;28;20036;-64
2021/11/18 07:15:13;;;;;;;30.30;12.95;;;;;;;-144.57;100.00;62443.72;5032902;28;20528;-64
2021/11/18 07:17:39;;;;;;;27.48;12.70;;;;;;;-144.57;100.00;62443.72;5028035;28;20499;-65
2021/11/18 07:20:07;;;;;;;30.98;13.27;;;;;;;-144.57;100.00;62443.72;5029220;28;20535;-65
2021/11/18 07:22:34;;;;;;;30.17;12.77;;;;;;;-144.57;100.00;62443.72;4998850;28;20043;-67
2021/11/18 07:25:05;;;;;;;;;;;;;;;-144.57;100.00;62443.72;5014564;28;20061;-68
2021/11/18 07:27:31;;;;;;;31.35;13.50;;;;;;;-144.57;100.00;62443.72;5045436;28;20240;-67
2021/11/18 07:29:57;;;;;;;30.58;12.40;;;;;;;-144.57;100.00;62443.72;5046942;28;20040;-67
2021/11/18 07:32:24;;;;;;;37.92;13.48;;;;;;;-144.57;100.00;62443.72;5047347;28;20549;-68
2021/11/18 07:34:51;;;;;;;29.90;12.60;;;;;;;-144.57;100.00;62443.72;5044654;28;20052;-64
2021/11/18 07:37:24;;;;;;;35.65;14.65;;;;;;;-144.57;100.00;62443.72;5039431;28;20129;-65
2021/11/18 07:39:50;;;;;;;32.63;13.55;;;;;;;-144.57;100.00;62443.72;5029918;28;20037;-67
2021/11/18 07:42:15;;;;;;;28.10;13.05;;;;;;;-144.57;100.00;62443.72;5027173;28;20525;-66
2021/11/18 07:45:15;;;;;;;29.80;13.07;;;;;;;-144.57;100.00;62443.72;5028452;28;20049;-67
2021/11/18 07:47:42;;;;;;;30.08;12.70;;;;;;;-144.57;100.00;62443.72;5050850;28;20087;-67
2021/11/18 07:50:11;;;;;;;33.15;12.95;;;;;;;-144.57;100.00;62443.72;5031464;28;20521;-65
2021/11/18 07:52:39;;;;;;;34.13;14.00;;;;;;;-144.57;100.00;62443.72;5047630;28;20574;-67
2021/11/18 07:55:09;;;;;;;34.42;13.95;;;;;;;-144.57;100.00;62443.72;5047615;28;20510;-67
2021/11/18 07:57:35;;;;;;;32.28;14.18;;;;;;;-144.57;100.00;62443.72;5046342;28;20162;-66
2021/11/18 08:00:01;;;;;;;31.63;13.23;;;;;;;-144.57;100.00;62443.72;5030686;28;20044;-66
2021/11/18 08:02:30;;;;;;;32.60;13.95;;;;;;;-144.57;100.00;62443.72;5046165;28;20037;-67
2021/11/18 08:05:00;;;;;;;31.65;13.73;;;;;;;-144.57;100.00;62443.72;4998416;28;20037;-68
2021/11/18 08:07:26;;;;;;;39.88;15.00;;;;;;;-144.57;100.00;62443.72;5027289;28;20534;-69
2021/11/18 08:09:54;;;;;;;34.40;13.65;;;;;;;-144.57;100.00;62443.72;5029880;28;20048;-66
2021/11/18 08:12:20;;;;;;;33.42;14.43;;;;;;;-144.57;100.00;62443.72;5046795;28;20119;-68
2021/11/18 08:14:46;;;;;;;34.80;13.55;;;;;;;-144.57;100.00;62443.72;5028229;28;20132;-67
2021/11/18 08:17:12;;;;;;;29.30;12.85;;;;;;;-144.57;100.00;62443.72;5045674;28;20435;-66
2021/11/18 08:19:39;;;;;;;35.58;13.55;;;;;;;-144.57;100.00;62443.72;5013385;28;20548;-68
2021/11/18 08:22:13;;;;;;;28.48;13.10;;;;;;;-144.57;100.00;62443.72;5000572;28;20383;-68
2021/11/18 08:24:41;;;;;;;29.23;13.93;;;;;;;-144.57;100.00;62443.72;5046009;28;20045;-69
2021/11/18 08:27:08;;;;;;;28.60;13.55;;;;;;;-144.57;100.00;62443.72;5047388;28;20072;-67
2021/11/18 08:29:36;;;;;;;25.20;12.77;;;;;;;-144.57;100.00;62443.72;5030021;28;20119;-67
2021/11/18 08:32:04;;;;;;;37.65;14.50;;;;;;;-144.57;100.00;62443.72;5028957;28;20049;-67
2021/11/18 08:34:43;;;;;;;34.47;13.80;;;;;;;-144.57;100.00;62443.72;5032543;28;20057;-69
2021/11/18 08:37:13;;;;;;;29.63;13.88;;;;;;;-144.57;100.00;62443.72;5031308;28;20056;-67
2021/11/18 08:39:41;;;;;;;30.25;14.30;;;;;;;-144.57;100.00;62443.72;5042749;28;20487;-67
2021/11/18 08:42:12;;;;;;;32.00;13.50;;;;;;;-144.57;100.00;62443.72;5025666;28;20099;-68
2021/11/18 08:44:39;;;;;;;31.67;14.10;;;;;;;-144.57;100.00;62443.72;5044721;28;20144;-65
2021/11/18 08:47:07;;;;;;;26.95;13.30;;;;;;;-144.57;100.00;62443.72;5046884;28;20037;-64
2021/11/18 08:49:34;;;;;;;29.42;13.93;;;;;;;-144.57;100.00;62443.72;5044819;28;20037;-64
2021/11/18 08:52:08;;;;;;;23.40;12.05;;;;;;;-144.57;100.00;62443.72;5029623;28;20041;-64
2021/11/18 08:54:39;;;;;;;30.63;13.52;;;;;;;-144.57;100.00;62443.72;5048699;28;20036;-65
2021/11/18 08:57:06;;;;;;;35.75;13.93;;;;;;;-144.57;100.00;62443.72;5029712;28;20118;-66
2021/11/18 08:59:52;;;;;;;30.02;13.52;;;;;;;-144.57;100.00;62443.72;5029055;28;20068;-64
2021/11/18 09:02:25;;;;;;;30.10;13.57;;;;;;;-144.57;100.00;62443.72;5030024;28;20072;-65
2021/11/18 09:04:54;;;;;;;30.33;12.77;;;;;;;-144.57;100.00;62443.72;5030515;28;20053;-65
2021/11/18 09:07:21;;;;;;;31.55;13.77;;;;;;;-144.57;100.00;62443.72;5029254;28;20041;-65
2021/11/18 09:09:48;;;;;;;30.00;13.23;;;;;;;-144.57;100.00;62443.72;5028824;28;20033;-65
2021/11/18 09:12:14;;;;;;;27.63;12.80;;;;;;;-144.57;100.00;62443.72;5029351;28;20067;-63
2021/11/18 09:14:44;;;;;;;28.55;13.02;;;;;;;-144.57;100.00;62443.72;5030213;28;20071;-66
2021/11/18 09:17:12;;;;;;;30.10;13.07;;;;;;;-144.57;100.00;62443.72;5011591;28;20497;-67
2021/11/18 09:19:45;;;;;;;28.25;12.77;;;;;;;-144.57;100.00;62443.72;5014348;28;20041;-65
2021/11/18 09:22:13;;;;;;;26.38;12.65;;;;;;;-144.57;100.00;62443.72;5030253;28;20110;-66
2021/11/18 09:24:45;;;;;;;26.98;12.45;;;;;;;-144.57;100.00;62443.72;5012361;28;20097;-66
2021/11/18 09:27:28;;;;;;;30.33;12.95;;;;;;;-144.57;100.00;62443.72;5028126;28;20052;-65
2021/11/18 09:29:56;;;;;;;29.52;13.40;;;;;;;-144.57;100.00;62443.72;5027201;28;20049;-66
2021/11/18 09:32:31;;;;;;;30.48;13.90;;;;;;;-144.57;100.00;62443.72;5009936;28;20526;-66
2021/11/18 09:35:16;;;;;;;28.45;12.52;;;;;;;-144.57;100.00;62443.72;5044202;28;20303;-65
2021/11/18 09:37:44;;;;;;;30.45;13.77;;;;;;;-144.57;100.00;62443.72;5038817;28;20063;-66
2021/11/18 09:40:14;;;;;;;35.83;14.60;;;;;;;-144.57;100.00;62443.72;5029637;28;20040;-64
2021/11/18 09:43:06;;;;;;;28.33;12.82;;;;;;;-144.57;100.00;62443.72;5047056;28;20037;-65
2021/11/18 09:45:41;;;;;;;29.20;12.73;;;;;;;-144.57;100.00;62443.72;5051781;28;20518;-64
2021/11/18 09:48:35;;;;;;;28.25;14.02;;;;;;;-144.57;100.00;62443.72;5054617;28;20040;-67
2021/11/18 09:51:39;;;;;;;32.05;13.68;;;;;;;-144.57;100.00;62443.72;5054441;28;20052;-65
2021/11/18 09:54:45;;;;;;;27.05;12.55;;;;;;;-144.57;100.00;62443.72;5022736;28;20052;-64
2021/11/18 09:57:38;;;;;;;26.08;13.38;;;;;;;-144.57;100.00;62443.72;5032045;28;20056;-65
2021/11/18 10:00:48;;;;;;;30.00;12.55;;;;;;;-144.57;100.00;62443.72;5032133;28;20048;-65
2021/11/18 10:03:44;;;;;;;28.65;12.60;;;;;;;-144.57;100.00;62443.72;5015610;28;20102;-64
2021/11/18 10:06:22;;;;;;;29.55;13.95;;;;;;;-144.57;100.00;62443.72;5047672;28;20048;-64
2021/11/18 10:09:12;;;;;;;27.67;13.73;;;;;;;-144.57;100.00;62443.72;5034946;28;20045;-65
2021/11/18 10:11:46;;;;;;;31.63;13.97;;;;;;;-144.57;100.00;62443.72;5018599;28;20136;-67
2021/11/18 10:14:44;;;;;;;28.50;13.80;;;;;;;-144.57;100.00;62443.72;5051513;28;20049;-65
2021/11/18 10:17:11;;;;;;;29.77;14.38;;;;;;;-144.57;100.00;62443.72;5051320;28;20059;-63
2021/11/18 10:19:44;;;;;;;26.90;13.98;;;;;;;-144.57;100.00;62443.72;5034466;28;20050;-64
2021/11/18 10:22:11;;;;;;;33.90;14.73;;;;;;;-144.57;100.00;62443.72;5049732;28;20052;-64
2021/11/18 10:24:40;;;;;;;30.55;14.55;;;;;;;-144.57;100.00;62443.72;5034024;28;20048;-63
2021/11/18 10:27:16;;;;;;;32.67;15.68;;;;;;;-144.57;100.00;62443.72;5034783;28;20498;-65
2021/11/18 10:30:20;;;;;;;29.38;13.75;;;;;;;-144.57;100.00;62443.72;5018979;28;20134;-65
2021/11/18 10:33:10;;;;;;;32.72;15.88;;;;;;;-144.57;100.00;62443.72;5052220;28;20140;-64
2021/11/18 10:35:47;;;;;;;33.17;16.05;;;;;;;-144.57;100.00;62443.72;5051175;28;20041;-65
2021/11/18 10:38:37;;;;;;;39.10;16.10;;;;;;;-144.57;100.00;62443.72;5021279;28;20049;-64
2021/11/18 10:41:04;;;;;;;35.80;16.10;;;;;;;-144.57;100.00;62443.72;5053455;28;20437;-61
2021/11/18 10:43:34;;;;;;;34.65;15.77;;;;;;;-144.57;100.00;62443.72;5053796;28;20060;-66
2021/11/18 10:46:07;;;;;;;33.42;16.80;;;;;;;-144.57;100.00;62443.72;5054804;28;20052;-63
2021/11/18 10:48:38;;;;;;;37.13;15.95;;;;;;;-144.57;100.00;62443.72;5053365;28;20052;-66
2021/11/18 10:51:06;;;;;;;40.60;17.70;;;;;;;-144.57;100.00;62443.72;5055427;28;20490;-66
2021/11/18 10:53:47;;;;;;;38.30;15.40;;;;;;;-144.57;100.00;62443.72;5053749;28;20613;-65
2021/11/18 10:56:17;;;;;;;35.08;16.30;;;;;;;-144.57;100.00;62443.72;5048742;28;20098;-65
2021/11/18 10:58:47;;;;;;;34.92;17.02;;;;;;;-144.57;100.00;62443.72;5048493;28;20286;-65
2021/11/18 11:01:25;;;;;;;38.60;15.90;;;;;;;-144.57;100.00;62443.72;5047156;28;20136;-64
2021/11/18 11:03:56;;;;;;;40.60;16.98;;;;;;;-144.57;100.00;62443.72;5049138;28;20124;-65
2021/11/18 11:06:24;;;;;;;38.05;17.40;;;;;;;-144.57;100.00;62443.72;5047685;28;20044;-64
2021/11/18 11:09:08;;;;;;;31.42;16.02;;;;;;;-144.57;100.00;62443.72;5030926;28;20505;-64
2021/11/18 11:11:37;;;;;;;36.33;16.55;;;;;;;-144.57;100.00;62443.72;5030665;28;20122;-64